Time;durP1;ratioP1;P1;durP2;ratioP2;P2;SDS_P1;SDS_P2;PMS_P1;PMS_P2;Temp;Humidity;BMP_temperature;BMP_pressure;BME280_temperature;BME280_humidity;BME280_pressure;Samples;Min_cycle;Max_cycle;Signal;HPM_P1;HPM_P2
2022/04/13 00:00:29;;;;;;;;;4.50;3.00;;;;;17.94;58.47;101050.28;4970262;28;45395;-74
2022/04/13 00:02:55;;;;;;;;;3.00;3.00;;;;;17.89;58.80;101053.25;4968540;28;45901;-74
2022/04/13 00:05:21;;;;;;;;;4.00;4.00;;;;;17.87;58.49;101060.47;4968977;28;46970;-74
2022/04/13 00:07:46;;;;;;;;;2.25;2.00;;;;;17.84;59.13;101060.69;4980605;28;45445;-74
2022/04/13 00:10:11;;;;;;;;;4.25;3.00;;;;;17.83;58.77;101058.13;4957638;28;45355;-74
2022/04/13 00:12:37;;;;;;;;;1.75;1.25;;;;;17.83;58.88;101066.97;4968461;28;45465;-74
2022/04/13 00:15:05;;;;;;;;;3.75;2.25;;;;;17.84;59.30;101068.66;4966000;28;45431;-74
2022/04/13 00:17:31;;;;;;;;;3.00;2.00;;;;;17.85;58.93;101078.34;4969839;28;45721;-74
2022/04/13 00:19:57;;;;;;;;;3.00;2.00;;;;;17.87;59.15;101072.94;4970515;28;45512;-74
2022/04/13 00:22:22;;;;;;;;;2.75;2.75;;;;;17.86;59.76;101080.06;4968798;28;45478;-74
2022/04/13 00:24:48;;;;;;;;;2.00;2.00;;;;;17.86;60.72;101085.38;4971191;28;47904;-74
2022/04/13 00:27:13;;;;;;;;;4.00;3.25;;;;;17.84;61.22;101081.09;4970463;28;45518;-74
2022/04/13 00:29:38;;;;;;;;;3.50;3.50;;;;;17.84;61.28;101086.41;4968829;28;45441;-74
2022/04/13 00:32:04;;;;;;;;;2.00;2.00;;;;;17.81;61.34;101079.53;4970354;28;45350;-74
2022/04/13 00:34:30;;;;;;;;;3.75;3.75;;;;;17.77;61.62;101078.00;4956062;28;46020;-74
2022/04/13 00:36:57;;;;;;;;;3.25;2.00;;;;;17.74;62.29;101075.56;4968442;28;45715;-74
2022/04/13 00:39:23;;;;;;;;;2.25;2.25;;;;;17.69;62.23;101073.16;4973168;28;45563;-75
2022/04/13 00:41:58;;;;;;;;;4.00;3.00;;;;;17.65;62.19;101066.38;4967403;28;45467;-75
2022/04/13 00:44:26;;;;;;;;;2.75;2.75;;;;;17.59;63.08;101073.88;4971991;28;45561;-75
2022/04/13 00:46:52;;;;;;;;;2.00;2.00;;;;;17.54;63.26;101076.00;4971066;28;45493;-75
2022/04/13 00:49:17;;;;;;;;;4.75;3.00;;;;;17.48;63.06;101074.59;4971673;28;45348;-75
2022/04/13 00:51:42;;;;;;;;;3.25;2.00;;;;;17.42;63.48;101077.66;4973940;28;45369;-75
2022/04/13 00:54:09;;;;;;;;;1.75;1.75;;;;;17.37;64.01;101074.47;4972369;28;45430;-75
2022/04/13 00:56:36;;;;;;;;;2.75;2.00;;;;;17.34;63.78;101075.53;4957308;28;45669;-75
2022/04/13 00:59:11;;;;;;;;;4.00;3.00;;;;;17.33;64.18;101073.84;4969606;28;45534;-75
2022/04/13 01:01:39;;;;;;;;;3.00;3.00;;;;;17.31;65.43;101070.41;4969289;28;45288;-75
2022/04/13 01:04:05;;;;;;;;;3.00;1.25;;;;;17.28;64.87;101070.63;4966646;28;45818;-75
2022/04/13 01:06:31;;;;;;;;;4.75;4.00;;;;;17.24;65.29;101069.13;4962045;28;45505;-75
2022/04/13 01:08:57;;;;;;;;;2.50;2.50;;;;;17.21;65.66;101070.16;4966235;28;45522;-75
2022/04/13 01:11:24;;;;;;;;;5.00;2.50;;;;;17.22;65.96;101076.31;4972130;28;45299;-75
2022/04/13 01:13:53;;;;;;;;;3.00;2.00;;;;;17.20;65.71;101075.59;4971646;28;46378;-75
2022/04/13 01:16:19;;;;;;;;;4.25;2.75;;;;;17.19;65.73;101081.84;4970132;28;45447;-75
2022/04/13 01:18:44;;;;;;;;;2.00;2.00;;;;;17.16;66.05;101074.06;4972309;28;45375;-75
2022/04/13 01:21:13;;;;;;;;;3.50;3.00;;;;;17.15;65.84;101080.34;4975324;28;45527;-75
2022/04/13 01:23:39;;;;;;;;;3.50;2.25;;;;;17.11;65.97;101071.72;4971029;28;45940;-74
2022/04/13 01:26:08;;;;;;;;;2.00;2.00;;;;;17.12;65.55;101083.19;4970771;28;45416;-75
2022/04/13 01:28:34;;;;;;;;;3.75;1.50;;;;;17.09;66.28;101076.28;4957451;28;45391;-74
2022/04/13 01:30:59;;;;;;;;;3.00;1.75;;;;;17.08;66.35;101074.59;4965291;28;46485;-74
2022/04/13 01:33:28;;;;;;;;;1.75;1.75;;;;;17.05;66.37;101074.75;4970018;28;45533;-75
2022/04/13 01:35:56;;;;;;;;;4.00;3.00;;;;;17.02;67.07;101076.75;4970610;28;45796;-75
2022/04/13 01:38:21;;;;;;;;;3.75;3.25;;;;;16.99;66.94;101083.13;4972672;28;45817;-75
2022/04/13 01:40:48;;;;;;;;;2.00;2.00;;;;;16.96;67.09;101083.31;4967884;28;45572;-75
2022/04/13 01:43:14;;;;;;;;;4.00;4.00;;;;;16.94;66.73;101087.88;4970590;28;46281;-75
2022/04/13 01:45:39;;;;;;;;;2.50;2.00;;;;;16.91;67.22;101086.28;4966587;28;45412;-75
2022/04/13 01:48:05;;;;;;;;;3.00;3.00;;;;;16.89;66.93;101090.81;4969358;28;45481;-75
2022/04/13 01:50:30;;;;;;;;;4.00;4.00;;;;;16.89;67.46;101090.81;4967423;28;45336;-75
2022/04/13 01:52:56;;;;;;;;;2.25;2.25;;;;;16.91;67.46;101090.72;4959401;28;46268;-75
2022/04/13 01:55:21;;;;;;;;;3.00;3.00;;;;;16.91;67.07;101104.88;4971558;28;45548;-75
2022/04/13 01:57:46;;;;;;;;;3.00;2.00;;;;;16.91;66.76;101098.69;4961166;28;49550;-75
2022/04/13 02:00:12;;;;;;;;;3.00;3.00;;;;;16.91;67.04;101101.34;4969115;28;45381;-75
2022/04/13 02:02:38;;;;;;;;;3.25;1.75;;;;;16.96;66.49;101107.22;4969474;28;46342;-75
2022/04/13 02:05:03;;;;;;;;;4.00;4.00;;;;;16.97;66.71;101097.47;4970072;28;45331;-72
2022/04/13 02:07:29;;;;;;;;;4.50;2.75;;;;;16.97;66.84;101103.63;4960276;28;45383;-72
2022/04/13 02:09:57;;;;;;;;;1.75;1.75;;;;;16.99;67.06;101109.69;4974125;28;45293;-72
2022/04/13 02:12:22;;;;;;;;;3.00;1.50;;;;;17.01;66.53;101104.25;4968251;28;46920;-72
2022/04/13 02:14:49;;;;;;;;;4.00;3.00;;;;;17.01;67.20;101098.97;4971894;28;45622;-72
2022/04/13 02:17:19;;;;;;;;;2.25;2.25;;;;;17.03;67.19;101099.72;4969196;28;45458;-72
2022/04/13 02:19:44;;;;;;;;;3.00;2.25;;;;;17.02;66.94;101100.66;4957005;28;45499;-72
2022/04/13 02:22:09;;;;;;;;;3.00;3.00;;;;;17.00;66.89;101100.75;4973326;28;45556;-72
2022/04/13 02:24:36;;;;;;;;;3.25;3.00;;;;;16.99;67.32;101109.69;4963475;28;45340;-72
2022/04/13 02:27:02;;;;;;;;;3.00;2.25;;;;;16.99;67.01;101114.16;4971881;28;45289;-72
2022/04/13 02:29:27;;;;;;;;;2.50;2.50;;;;;16.99;67.09;101114.16;4971012;28;45293;-72
2022/04/13 02:31:53;;;;;;;;;4.25;3.00;;;;;16.99;67.44;101114.16;4963929;28;47593;-72
2022/04/13 02:34:18;;;;;;;;;5.00;4.25;;;;;16.98;66.92;101118.59;4969863;28;45505;-72
2022/04/13 02:36:44;;;;;;;;;3.00;3.00;;;;;16.97;67.34;101116.91;4973129;28;45497;-72
2022/04/13 02:39:09;;;;;;;;;5.00;2.50;;;;;16.98;66.92;101117.75;4967690;28;45525;-72
2022/04/13 02:41:35;;;;;;;;;4.25;1.75;;;;;16.96;67.11;101120.47;4969243;28;46046;-73
2022/04/13 02:44:00;;;;;;;;;5.50;3.00;;;;;16.94;66.94;101123.25;4971705;28;45429;-73
2022/04/13 02:46:25;;;;;;;;;4.25;3.00;;;;;16.94;66.71;101123.25;4959758;28;45414;-73
2022/04/13 02:48:51;;;;;;;;;4.00;3.00;;;;;16.91;66.71;101117.28;4970855;28;45553;-72
2022/04/13 02:51:16;;;;;;;;;3.50;2.50;;;;;16.91;66.63;101123.47;4965752;28;45731;-74
2022/04/13 02:53:41;;;;;;;;;3.00;3.00;;;;;16.89;67.20;101112.06;4964341;28;45742;-73
2022/04/13 02:56:06;;;;;;;;;5.25;4.00;;;;;16.87;67.18;101111.31;4972921;28;45682;-73
2022/04/13 02:58:32;;;;;;;;;2.25;2.25;;;;;16.87;67.37;101105.16;4968095;28;45446;-73
2022/04/13 03:00:57;;;;;;;;;3.00;3.00;;;;;16.87;67.12;101107.81;4971138;28;46123;-73
2022/04/13 03:03:22;;;;;;;;;3.50;3.00;;;;;16.87;67.43;101116.63;4963786;28;45410;-73
2022/04/13 03:05:48;;;;;;;;;4.75;3.50;;;;;16.87;67.24;101115.78;4959986;28;45458;-73
2022/04/13 03:08:14;;;;;;;;;4.00;3.25;;;;;16.88;67.39;101118.34;4968805;28;45865;-74
2022/04/13 03:10:39;;;;;;;;;3.75;3.75;;;;;16.89;67.02;101124.50;4969072;28;46431;-74
2022/04/13 03:13:05;;;;;;;;;3.50;2.75;;;;;16.89;67.70;101122.69;4957916;28;45293;-74
2022/04/13 03:15:30;;;;;;;;;4.25;2.25;;;;;16.88;67.42;101125.44;4962624;28;45492;-74
2022/04/13 03:17:55;;;;;;;;;3.00;3.00;;;;;16.89;67.34;101135.97;4964021;28;45481;-74
2022/04/13 03:20:21;;;;;;;;;4.00;2.00;;;;;16.87;67.72;101139.69;4966706;28;51241;-74
2022/04/13 03:22:46;;;;;;;;;6.75;4.50;;;;;16.85;68.00;101146.88;4970968;28;45538;-74
2022/04/13 03:25:12;;;;;;;;;3.00;2.50;;;;;16.82;68.57;101155.88;4969940;28;45720;-73
2022/04/13 03:27:37;;;;;;;;;7.25;3.00;;;;;16.80;69.05;101149.81;4971898;28;45434;-73
2022/04/13 03:30:04;;;;;;;;;3.25;2.25;;;;;16.75;70.00;101151.88;4970890;28;46115;-73
2022/04/13 03:32:39;;;;;;;;;3.75;3.75;;;;;16.70;70.13;101161.91;4968149;28;45718;-73
2022/04/13 03:35:07;;;;;;;;;3.50;3.50;;;;;16.67;70.87;101164.75;4965539;28;45465;-73
2022/04/13 03:37:32;;;;;;;;;6.00;5.00;;;;;16.62;71.36;101162.38;4966353;28;45465;-73
2022/04/13 03:39:57;;;;;;;;;6.00;4.00;;;;;16.61;71.63;101159.84;4967007;28;46388;-73
2022/04/13 03:42:23;;;;;;;;;3.00;3.00;;;;;16.58;72.02;101162.66;4970471;28;45525;-73
2022/04/13 03:44:48;;;;;;;;;6.25;3.75;;;;;16.57;72.43;101171.56;4965351;28;45521;-74
2022/04/13 03:47:13;;;;;;;;;3.75;3.75;;;;;16.55;72.28;101173.44;4965607;28;45295;-72
2022/04/13 03:49:39;;;;;;;;;4.00;3.50;;;;;16.52;72.33;101179.81;4968551;28;45354;-72
2022/04/13 03:52:04;;;;;;;;;6.00;4.00;;;;;16.48;73.05;101180.94;4968618;28;55583;-72
2022/04/13 03:54:30;;;;;;;;;6.00;4.00;;;;;16.45;73.69;101178.50;4964263;28;45438;-72
2022/04/13 03:56:55;;;;;;;;;4.75;4.75;;;;;16.45;73.86;101170.53;4965123;28;50163;-72
2022/04/13 03:59:22;;;;;;;;;8.25;4.00;;;;;16.42;73.96;101166.25;4965158;28;45395;-72
2022/04/13 04:01:47;;;;;;;;;5.50;4.00;;;;;16.39;73.97;101163.81;4964078;28;45360;-73
2022/04/13 04:04:13;;;;;;;;;7.25;5.50;;;;;16.36;74.68;101171.94;4966865;28;45354;-73
2022/04/13 04:06:38;;;;;;;;;4.00;3.75;;;;;16.35;74.84;101162.28;4985945;28;45479;-73
2022/04/13 04:09:04;;;;;;;;;4.50;4.25;;;;;16.32;74.93;101172.19;4963871;28;45950;-73
2022/04/13 04:11:29;;;;;;;;;4.00;4.00;;;;;16.30;75.26;101174.97;4965186;28;45800;-73
2022/04/13 04:13:55;;;;;;;;;4.25;4.25;;;;;16.28;75.08;101174.19;4973396;28;45561;-73
2022/04/13 04:16:20;;;;;;;;;6.25;5.25;;;;;16.24;75.27;101175.31;4962929;28;45470;-72
2022/04/13 04:18:48;;;;;;;;;5.50;5.25;;;;;16.22;75.13;101187.81;4971547;28;46300;-72
2022/04/13 04:21:14;;;;;;;;;5.00;3.00;;;;;16.21;75.93;101190.56;4963825;28;45717;-73
2022/04/13 04:23:39;;;;;;;;;9.00;5.50;;;;;16.20;76.42;101195.00;4965068;28;45478;-73
2022/04/13 04:26:04;;;;;;;;;8.00;6.00;;;;;16.17;75.93;101198.69;4970968;28;46839;-72
2022/04/13 04:28:30;;;;;;;;;7.25;5.25;;;;;16.16;76.08;101194.31;4970806;28;45315;-72
2022/04/13 04:30:55;;;;;;;;;4.50;3.75;;;;;16.15;76.69;101194.44;4970057;28;45360;-73
2022/04/13 04:33:20;;;;;;;;;5.00;5.00;;;;;16.15;76.73;101197.06;4961747;28;50522;-72
2022/04/13 04:35:47;;;;;;;;;7.00;4.75;;;;;16.13;76.80;101205.13;4966659;28;45447;-72
2022/04/13 04:38:13;;;;;;;;;5.50;5.00;;;;;16.12;76.94;101203.41;4969132;28;45765;-72
2022/04/13 04:40:39;;;;;;;;;6.00;6.00;;;;;16.09;76.96;101200.94;4971913;28;45492;-72
2022/04/13 04:43:04;;;;;;;;;7.00;5.75;;;;;16.08;77.14;101209.84;4975066;28;45311;-72
2022/04/13 04:45:30;;;;;;;;;6.50;6.50;;;;;16.06;76.99;101214.38;4967743;28;45535;-72
2022/04/13 04:47:57;;;;;;;;;7.00;5.75;;;;;16.07;77.70;101217.88;4972356;28;47030;-72
2022/04/13 04:50:23;;;;;;;;;8.00;7.00;;;;;16.04;77.28;101205.66;4970871;28;45694;-72
2022/04/13 04:52:49;;;;;;;;;8.00;5.75;;;;;16.03;77.35;101213.72;4969194;28;45570;-72
2022/04/13 04:55:17;;;;;;;;;6.00;6.00;;;;;16.01;78.00;101216.44;4968729;28;45394;-72
2022/04/13 04:57:43;;;;;;;;;6.00;5.00;;;;;16.00;77.56;101220.03;4972519;28;45454;-72
2022/04/13 05:00:12;;;;;;;;;7.75;5.00;;;;;15.98;77.82;101216.63;4967237;28;45495;-72
2022/04/13 05:02:37;;;;;;;;;9.50;7.50;;;;;15.98;78.00;101221.06;4966393;28;45453;-72
2022/04/13 05:05:04;;;;;;;;;8.75;7.25;;;;;15.95;77.93;101216.78;4965632;28;45589;-72
2022/04/13 05:07:30;;;;;;;;;6.00;5.75;;;;;15.93;77.93;101216.03;4971171;28;46128;-72
2022/04/13 05:09:55;;;;;;;;;5.50;5.50;;;;;15.93;77.94;101212.53;4976886;28;45315;-73
2022/04/13 05:12:21;;;;;;;;;7.25;7.25;;;;;15.90;78.15;101221.50;4968426;28;45958;-72
2022/04/13 05:14:46;;;;;;;;;9.25;6.25;;;;;15.86;78.63;101220.81;4971874;28;45534;-73
2022/04/13 05:17:11;;;;;;;;;6.25;5.75;;;;;15.89;79.03;101225.94;4966198;28;45550;-73
2022/04/13 05:19:37;;;;;;;;;10.75;6.50;;;;;15.90;78.92;101243.56;4968348;28;45446;-72
2022/04/13 05:22:02;;;;;;;;;9.25;8.25;;;;;15.90;78.80;101246.22;4967690;28;51335;-73
2022/04/13 05:24:28;;;;;;;;;10.75;6.75;;;;;15.90;78.80;101242.72;4970419;28;45339;-73
2022/04/13 05:26:53;;;;;;;;;11.00;6.50;;;;;15.89;78.87;101249.81;4966185;28;47042;-73
2022/04/13 05:29:18;;;;;;;;;10.25;9.50;;;;;15.90;79.22;101240.06;4971746;28;45498;-73
2022/04/13 05:31:44;;;;;;;;;7.25;6.25;;;;;15.90;79.23;101224.16;4963585;28;45441;-73
2022/04/13 05:34:09;;;;;;;;;10.50;8.25;;;;;15.90;79.29;101224.16;4971554;28;45458;-73
2022/04/13 05:36:35;;;;;;;;;9.75;9.75;;;;;15.91;79.46;101232.00;4964116;28;46480;-73
2022/04/13 05:39:01;;;;;;;;;7.25;7.00;;;;;15.89;79.45;101236.56;4969995;28;46931;-73
2022/04/13 05:41:26;;;;;;;;;8.00;6.75;;;;;15.91;79.75;101232.00;4971168;28;45376;-73
2022/04/13 05:43:51;;;;;;;;;10.75;8.50;;;;;15.90;79.68;101240.06;4970256;28;45694;-73
2022/04/13 05:46:17;;;;;;;;;10.50;8.25;;;;;15.94;79.90;101246.91;4956944;28;53776;-73
2022/04/13 05:48:42;;;;;;;;;6.25;6.25;;;;;15.96;80.14;101255.59;4961693;28;45362;-73
2022/04/13 05:51:09;;;;;;;;;8.75;8.75;;;;;15.98;79.91;101253.75;4964583;28;45504;-73
2022/04/13 05:53:37;;;;;;;;;11.50;6.50;;;;;16.00;80.18;101248.34;4969833;28;45604;-73
2022/04/13 05:56:03;;;;;;;;;11.50;7.25;;;;;16.00;80.14;101253.66;4967397;28;46931;-73
2022/04/13 05:58:28;;;;;;;;;8.50;7.25;;;;;15.99;80.21;101251.94;4967251;28;45376;-74
2022/04/13 06:00:54;;;;;;;;;6.75;6.50;;;;;16.00;80.35;101257.16;4963526;28;45505;-74
2022/04/13 06:03:22;;;;;;;;;7.25;6.00;;;;;16.02;80.31;101262.34;4963088;28;45451;-73
2022/04/13 06:05:47;;;;;;;;;8.50;8.50;;;;;16.02;80.23;101265.00;4962707;28;46938;-74
2022/04/13 06:08:13;;;;;;;;;9.00;7.75;;;;;16.04;80.29;101279.03;4967837;28;45505;-72
2022/04/13 06:10:39;;;;;;;;;9.75;9.25;;;;;16.06;80.21;101278.00;4965872;28;45681;-72
2022/04/13 06:13:04;;;;;;;;;9.00;9.00;;;;;16.08;80.31;101278.78;4972096;28;45477;-72
2022/04/13 06:15:31;;;;;;;;;9.25;8.50;;;;;16.10;80.66;101273.38;4966666;28;45506;-72
2022/04/13 06:17:57;;;;;;;;;11.25;6.75;;;;;16.12;80.11;101284.75;4972441;28;45741;-72
2022/04/13 06:20:23;;;;;;;;;7.50;7.50;;;;;16.13;80.27;101291.75;4969977;28;45465;-72
2022/04/13 06:22:48;;;;;;;;;15.00;9.25;;;;;16.13;80.44;101287.34;4966643;28;45641;-71
2022/04/13 06:25:13;;;;;;;;;13.75;11.75;;;;;16.13;80.38;101289.09;4969324;28;46121;-72
2022/04/13 06:27:40;;;;;;;;;13.75;10.75;;;;;16.15;80.24;101287.22;4970692;28;45387;-72
2022/04/13 06:30:07;;;;;;;;;10.75;8.75;;;;;16.13;80.49;101294.41;4967059;28;45415;-72
2022/04/13 06:32:38;;;;;;;;;14.00;10.75;;;;;16.17;80.50;101293.28;4963753;28;45484;-72
2022/04/13 06:35:05;;;;;;;;;11.00;8.50;;;;;16.19;80.88;101296.72;4960204;28;46456;-72
2022/04/13 06:37:31;;;;;;;;;11.50;9.75;;;;;16.22;81.08;101306.28;4963317;28;45431;-72
2022/04/13 06:39:56;;;;;;;;;8.25;7.75;;;;;16.24;81.03;101310.59;4965748;28;45739;-72
2022/04/13 06:42:22;;;;;;;;;11.25;9.50;;;;;16.25;81.21;101314.94;4966795;28;45627;-74
2022/04/13 06:44:56;;;;;;;;;10.25;9.50;;;;;16.30;81.54;101314.69;4975752;28;48147;-72
2022/04/13 06:47:22;;;;;;;;;14.50;11.00;;;;;16.32;81.20;101332.19;4970400;28;51152;-72
2022/04/13 06:49:48;;;;;;;;;10.25;10.00;;;;;16.32;80.93;101329.53;4963522;28;45426;-71
2022/04/13 06:52:14;;;;;;;;;10.75;10.75;;;;;16.33;81.25;101344.50;4971669;28;45499;-72
2022/04/13 06:54:40;;;;;;;;;12.25;10.50;;;;;16.34;81.02;101342.72;4974266;28;46416;-72
2022/04/13 06:57:06;;;;;;;;;12.50;10.25;;;;;16.34;81.23;101355.97;4967450;28;45954;-72
2022/04/13 06:59:31;;;;;;;;;14.75;12.00;;;;;16.34;81.36;101353.31;4971253;28;45499;-72
2022/04/13 07:01:56;;;;;;;;;16.75;15.75;;;;;16.34;81.10;101355.97;4967910;28;45403;-73
2022/04/13 07:04:22;;;;;;;;;18.50;16.00;;;;;16.30;81.08;101368.56;4970452;28;51654;-73
2022/04/13 07:06:47;;;;;;;;;14.00;10.25;;;;;16.30;80.93;101367.72;4966048;28;45532;-73
2022/04/13 07:09:12;;;;;;;;;14.50;11.00;;;;;16.29;81.15;101366.03;4975512;28;51761;-73
2022/04/13 07:11:38;;;;;;;;;10.25;10.25;;;;;16.28;81.49;101375.75;4968723;28;45379;-74
2022/04/13 07:14:03;;;;;;;;;11.00;11.00;;;;;16.25;81.06;101380.38;4969634;28;45922;-73
2022/04/13 07:16:28;;;;;;;;;14.00;12.00;;;;;16.25;81.28;101389.19;4967546;28;45542;-73
2022/04/13 07:18:54;;;;;;;;;16.25;11.50;;;;;16.21;81.46;101402.72;4971596;28;45480;-73
2022/04/13 07:21:19;;;;;;;;;15.00;14.50;;;;;16.20;81.46;101403.66;4969177;28;45342;-74
2022/04/13 07:23:44;;;;;;;;;12.50;10.00;;;;;16.18;81.72;101409.03;4967237;28;47152;-73
2022/04/13 07:26:11;;;;;;;;;11.00;9.75;;;;;16.19;81.89;101410.75;4971045;28;45504;-73
2022/04/13 07:28:37;;;;;;;;;14.50;11.25;;;;;16.17;81.55;101416.13;4967404;28;45355;-73
2022/04/13 07:31:02;;;;;;;;;16.75;12.75;;;;;16.17;81.79;101415.28;4966270;28;45513;-74
2022/04/13 07:33:27;;;;;;;;;13.25;11.25;;;;;16.17;82.21;101415.28;4970567;28;50128;-73
2022/04/13 07:35:53;;;;;;;;;11.50;9.25;;;;;16.12;82.15;101404.91;4966649;28;45750;-72
2022/04/13 07:38:18;;;;;;;;;15.25;12.50;;;;;16.18;82.42;101417.88;4968084;28;46367;-72
2022/04/13 07:40:44;;;;;;;;;17.50;12.25;;;;;16.24;82.47;101413.16;4983260;28;45677;-74
2022/04/13 07:43:10;;;;;;;;;12.00;11.00;;;;;16.26;82.12;101414.78;4976838;28;46037;-73
2022/04/13 07:45:35;;;;;;;;;19.25;13.25;;;;;16.32;82.30;101418.88;4973569;28;45796;-73
2022/04/13 07:48:01;;;;;;;;;15.00;12.00;;;;;16.37;82.52;101412.38;4968905;28;45329;-73
2022/04/13 07:50:26;;;;;;;;;18.50;14.75;;;;;16.47;82.55;101425.13;4966126;28;45496;-72
2022/04/13 07:52:52;;;;;;;;;19.50;15.50;;;;;16.54;82.40;101418.50;4965467;28;45980;-72
2022/04/13 07:55:19;;;;;;;;;17.25;14.00;;;;;16.60;82.13;101419.03;4963475;28;45322;-72
2022/04/13 07:57:44;;;;;;;;;19.00;16.25;;;;;16.64;82.09;101419.69;4974472;28;45344;-72
2022/04/13 08:00:11;;;;;;;;;21.25;15.25;;;;;16.75;81.61;101422.63;4971286;28;45713;-73
2022/04/13 08:02:37;;;;;;;;;17.00;13.50;;;;;16.82;82.02;101420.47;4974941;28;46559;-73
2022/04/13 08:05:03;;;;;;;;;18.00;14.75;;;;;16.87;81.93;101427.25;4970549;28;45440;-73
2022/04/13 08:07:28;;;;;;;;;15.25;12.50;;;;;16.92;81.39;101417.19;4961591;28;45729;-74
2022/04/13 08:09:54;;;;;;;;;12.50;12.00;;;;;16.94;81.01;101420.59;4962543;28;45437;-74
2022/04/13 08:12:19;;;;;;;;;16.25;13.75;;;;;16.99;80.60;101424.81;4984566;27;45629;-72
2022/04/13 08:14:49;;;;;;;;;16.25;16.00;;;;;16.98;80.29;101425.75;4961780;28;56848;-73
2022/04/13 08:17:14;;;;;;;;;14.25;14.00;;;;;16.94;79.88;101427.72;4965957;28;45422;-73
2022/04/13 08:19:40;;;;;;;;;16.50;15.00;;;;;16.93;80.37;101432.19;4970074;28;45639;-73
2022/04/13 08:22:06;;;;;;;;;18.25;15.75;;;;;16.96;80.58;101439.09;4962755;28;46704;-72
2022/04/13 08:24:32;;;;;;;;;18.75;14.25;;;;;17.00;81.01;101443.28;4969830;28;45380;-72
2022/04/13 08:27:00;;;;;;;;;19.00;14.50;;;;;17.05;81.05;101443.03;4966326;28;45494;-72
2022/04/13 08:29:26;;;;;;;;;18.25;14.50;;;;;17.09;80.71;101445.41;4979925;28;45497;-73
2022/04/13 08:31:51;;;;;;;;;18.00;13.00;;;;;17.13;80.48;101441.63;4968269;28;46254;-72
2022/04/13 08:34:17;;;;;;;;;14.25;13.00;;;;;17.14;80.14;101437.19;4967884;28;45549;-74
2022/04/13 08:36:42;;;;;;;;;18.75;18.50;;;;;17.15;79.98;101450.34;4973898;28;45479;-73
2022/04/13 08:39:14;;;;;;;;;23.00;17.00;;;;;17.13;79.60;101456.72;4985032;28;45375;-73
2022/04/13 08:41:55;;;;;;;;;21.50;17.00;;;;;17.07;79.03;101452.63;4993585;28;45457;-73
2022/04/13 08:44:34;;;;;;;;;21.25;20.00;;;;;17.01;79.34;101458.28;4967876;28;45385;-72
2022/04/13 08:47:07;;;;;;;;;16.00;15.25;;;;;17.00;79.76;101464.53;4976522;28;45665;-72
2022/04/13 08:49:34;;;;;;;;;21.25;18.75;;;;;17.02;80.47;101472.41;4971801;28;45484;-71
2022/04/13 08:52:03;;;;;;;;;18.75;16.50;;;;;17.04;80.61;101479.34;4979837;28;46093;-72
2022/04/13 08:54:36;;;;;;;;;19.25;19.25;;;;;17.07;80.56;101486.25;4978739;28;45758;-71
2022/04/13 08:57:06;;;;;;;;;21.25;18.75;;;;;17.07;80.43;101487.16;4973016;28;45583;-72
2022/04/13 08:59:50;;;;;;;;;17.25;16.25;;;;;17.09;80.80;101487.91;4969622;28;45482;-72
2022/04/13 09:02:53;;;;;;;;;18.25;17.50;;;;;17.18;80.82;101491.84;4968166;28;46403;-72
2022/04/13 09:05:28;;;;;;;;;17.00;17.00;;;;;17.24;80.98;101502.09;4968270;28;45323;-73
2022/04/13 09:08:05;;;;;;;;;39.25;33.00;;;;;17.30;80.34;101504.38;4981585;28;45489;-72
2022/04/13 09:10:31;;;;;;;;;21.75;18.50;;;;;17.26;79.69;101508.16;4979780;28;45513;-73
2022/04/13 09:12:58;;;;;;;;;24.00;20.00;;;;;17.22;79.38;101517.25;4972136;28;46159;-72
2022/04/13 09:15:24;;;;;;;;;20.25;18.25;;;;;17.14;78.90;101509.75;4970065;28;45528;-72
2022/04/13 09:17:50;;;;;;;;;18.50;17.25;;;;;17.07;79.70;101524.34;4977436;28;45680;-73
2022/04/13 09:20:16;;;;;;;;;21.25;20.00;;;;;17.01;79.10;101521.16;4975362;28;45558;-72
2022/04/13 09:22:43;;;;;;;;;21.25;16.75;;;;;16.93;79.93;101526.91;4972095;28;45983;-72
2022/04/13 09:25:09;;;;;;;;;22.00;18.00;;;;;16.94;80.53;101532.13;4979499;28;45762;-72
2022/04/13 09:27:37;;;;;;;;;22.25;17.25;;;;;16.99;79.82;101533.66;4971953;28;45464;-72
2022/04/13 09:30:05;;;;;;;;;20.75;19.00;;;;;17.02;79.75;101538.78;4992180;28;45468;-73
2022/04/13 09:32:31;;;;;;;;;20.50;17.50;;;;;17.07;79.99;101540.28;4972131;28;45444;-73
2022/04/13 09:34:56;;;;;;;;;20.50;16.75;;;;;17.14;80.46;101530.13;5029883;28;45346;-72
2022/04/13 09:37:22;;;;;;;;;22.50;18.00;;;;;17.21;79.71;101542.97;4972356;28;45562;-73
2022/04/13 09:39:48;;;;;;;;;21.75;16.75;;;;;17.29;79.34;101545.19;4974264;28;45363;-72
2022/04/13 09:42:14;;;;;;;;;16.00;15.50;;;;;17.35;78.90;101541.31;4972038;28;45943;-73
2022/04/13 09:44:43;;;;;;;;;17.25;14.00;;;;;17.40;78.55;101540.09;4972694;28;45477;-72
2022/04/13 09:47:10;;;;;;;;;15.00;13.00;;;;;17.45;78.95;101535.38;4970475;28;45442;-72
2022/04/13 09:49:35;;;;;;;;;14.25;11.75;;;;;17.48;77.92;101543.16;4976898;28;45638;-72
2022/04/13 09:52:00;;;;;;;;;13.75;13.00;;;;;17.43;77.84;101536.38;4975024;28;45347;-73
2022/04/13 09:54:27;;;;;;;;;16.50;12.00;;;;;17.39;78.20;101527.75;4967647;28;45790;-72
2022/04/13 09:56:53;;;;;;;;;16.50;13.00;;;;;17.36;78.20;101535.91;4964713;28;45435;-73
2022/04/13 09:59:29;;;;;;;;;11.50;9.75;;;;;17.33;78.76;101541.41;4969209;28;45456;-73
2022/04/13 10:01:55;;;;;;;;;13.75;12.50;;;;;17.35;79.14;101536.00;5001859;28;46439;-80
2022/04/13 10:04:25;;;;;;;;;14.75;13.25;;;;;17.42;79.41;101543.50;4956074;28;45567;-72
2022/04/13 10:06:52;;;;;;;;;13.25;9.75;;;;;17.56;78.61;101542.72;4958883;28;45276;-72
2022/04/13 10:09:19;;;;;;;;;8.75;8.75;;;;;17.59;77.96;101541.66;4966444;28;45465;-72
2022/04/13 10:12:02;;;;;;;;;10.75;9.00;;;;;17.63;77.95;101536.06;4966497;28;45550;-73
2022/04/13 10:14:28;;;;;;;;;10.50;10.25;;;;;17.72;78.48;101532.91;4967597;28;46607;-72
2022/04/13 10:16:56;;;;;;;;;11.75;10.25;;;;;17.85;78.35;101535.66;4969074;28;45864;-72
2022/04/13 10:19:22;;;;;;;;;13.00;11.00;;;;;17.99;77.83;101527.69;4957508;28;45377;-73
2022/04/13 10:21:49;;;;;;;;;9.50;8.25;;;;;18.15;77.65;101532.94;4970429;28;46076;-72
2022/04/13 10:24:21;;;;;;;;;10.50;9.50;;;;;18.25;77.06;101530.56;4962290;28;45732;-72
2022/04/13 10:27:07;;;;;;;;;13.00;11.00;;;;;18.35;76.12;101523.72;4965016;28;45542;-72
2022/04/13 10:29:34;;;;;;;;;9.50;9.50;;;;;18.47;75.60;101525.59;4964106;28;45680;-72
2022/04/13 10:32:25;;;;;;;;;9.75;8.50;;;;;18.64;76.10;101526.34;4966959;28;46194;-74
2022/04/13 10:34:59;;;;;;;;;10.50;8.50;;;;;18.83;75.50;101531.34;4964952;28;45335;-72
2022/04/13 10:37:26;;;;;;;;;12.00;10.50;;;;;19.04;75.88;101533.47;4965929;28;45550;-72
2022/04/13 10:39:52;;;;;;;;;9.00;7.50;;;;;19.37;74.38;101539.31;4958389;28;45405;-72
2022/04/13 10:42:20;;;;;;;;;8.50;7.25;;;;;19.76;74.75;101533.13;4994527;28;46065;-72
2022/04/13 10:44:57;;;;;;;;;7.50;5.00;;;;;20.22;73.38;101549.44;4989897;28;45875;-72
2022/04/13 10:47:35;;;;;;;;;5.50;5.50;;;;;20.51;71.45;101544.72;4968677;28;45237;-72
2022/04/13 10:50:03;;;;;;;;;7.25;5.75;;;;;20.68;71.21;101537.34;4985289;28;45552;-72
2022/04/13 10:52:44;;;;;;;;;8.00;7.00;;;;;20.96;70.39;101530.81;4955321;28;46505;-72
2022/04/13 10:55:11;;;;;;;;;9.00;7.00;;;;;21.23;68.96;101536.75;4975271;28;45369;-72
2022/04/13 10:58:04;;;;;;;;;8.00;6.00;;;;;21.53;69.94;101532.78;4969469;28;45516;-72
2022/04/13 11:00:35;;;;;;;;;7.25;5.50;;;;;21.77;69.11;101527.34;4960459;28;45490;-71
2022/04/13 11:03:04;;;;;;;;;4.50;4.50;;;;;21.94;67.80;101528.72;4960554;28;45622;-72
2022/04/13 11:05:33;;;;;;;;;4.75;3.75;;;;;21.94;66.34;101534.94;4956654;28;46132;-72
2022/04/13 11:08:27;;;;;;;;;6.50;6.00;;;;;21.93;67.07;101525.19;4955887;28;45488;-72
2022/04/13 11:10:53;;;;;;;;;9.00;7.00;;;;;22.03;67.12;101528.88;4959585;28;45538;-72
2022/04/13 11:13:19;;;;;;;;;7.50;6.25;;;;;22.00;66.50;101515.72;4968653;28;46301;-73
2022/04/13 11:15:52;;;;;;;;;6.00;6.00;;;;;22.01;65.62;101521.91;4971579;28;45512;-72
2022/04/13 11:18:20;;;;;;;;;7.00;5.50;;;;;21.96;64.27;101518.75;4957259;28;45528;-72